createdAt,value
2023-04-08T00:05:37.581Z,1.60
2023-04-08T00:15:42.323Z,1.50
2023-04-08T00:25:47.425Z,1.30
2023-04-08T00:35:51.214Z,1.20
2023-04-08T00:45:56.408Z,1.10
2023-04-08T00:56:01.634Z,0.90
2023-04-08T01:06:17.341Z,0.60
2023-04-08T01:16:22.670Z,0.40
2023-04-08T01:26:28.219Z,0.20
2023-04-08T01:36:33.871Z,0.00
2023-04-08T01:46:40.594Z,0.20
2023-04-08T01:56:46.121Z,0.20
2023-04-08T02:06:51.788Z,0.20
2023-04-08T02:17:02.054Z,0.30
2023-04-08T02:27:08.797Z,0.40
2023-04-08T02:37:12.715Z,0.30
2023-04-08T02:47:17.959Z,0.20
2023-04-08T02:57:21.896Z,0.20
2023-04-08T03:07:27.144Z,0.10
2023-04-08T03:17:32.734Z,-0.10
2023-04-08T03:27:37.757Z,0.00
2023-04-08T03:37:41.534Z,0.00
2023-04-08T03:47:46.684Z,0.10
2023-04-08T03:57:50.411Z,0.10
2023-04-08T04:07:55.401Z,0.00
2023-04-08T04:17:59.077Z,-0.40
2023-04-08T04:28:04.268Z,-0.30
2023-04-08T04:38:11.151Z,-0.20
2023-04-08T04:48:16.456Z,0.00
2023-04-08T04:58:20.194Z,0.30
2023-04-08T05:08:27.710Z,0.40
2023-04-08T05:18:31.680Z,0.60
2023-04-08T05:28:36.769Z,0.80
2023-04-08T05:38:40.746Z,1.00
2023-04-08T05:48:45.900Z,1.50
2023-04-08T05:58:49.796Z,2.00
2023-04-08T06:08:55.040Z,2.50
2023-04-08T06:18:58.736Z,4.00
2023-04-08T06:29:05.115Z,5.80
2023-04-08T06:39:08.936Z,7.60
2023-04-08T06:49:14.698Z,9.10
2023-04-08T06:59:18.376Z,10.90
2023-04-08T07:09:23.408Z,9.70
2023-04-08T07:19:27.141Z,9.70
2023-04-08T07:29:32.443Z,14.10
2023-04-08T07:39:36.024Z,11.70
2023-04-08T07:49:41.405Z,12.40
2023-04-08T07:59:45.037Z,14.60
2023-04-08T08:09:50.334Z,13.90
2023-04-08T08:19:54.214Z,13.10
2023-04-08T08:29:59.134Z,11.70
2023-04-08T08:40:02.707Z,12.40
2023-04-08T08:50:08.700Z,11.90
2023-04-08T09:00:16.215Z,12.50
2023-04-08T09:10:30.076Z,11.90
2023-04-08T09:20:33.721Z,15.20
2023-04-08T09:30:38.926Z,13.70
2023-04-08T09:40:45.106Z,17.40
2023-04-08T09:50:54.204Z,24.80
2023-04-08T10:00:58.274Z,21.20
2023-04-08T10:11:03.788Z,21.60
2023-04-08T10:21:40.364Z,16.40
2023-04-08T10:31:45.752Z,13.30
2023-04-08T10:41:51.484Z,11.30
2023-04-08T10:51:56.667Z,10.50
2023-04-08T11:02:01.547Z,9.10
2023-04-08T11:12:06.994Z,7.80
2023-04-08T11:22:11.744Z,7.20
2023-04-08T11:32:17.616Z,7.20
2023-04-08T11:42:31.525Z,6.90
2023-04-08T11:52:48.500Z,6.70
2023-04-08T12:02:53.606Z,6.50
2023-04-08T12:12:58.671Z,6.30
2023-04-08T12:23:02.489Z,6.20
2023-04-08T12:33:07.713Z,6.50
2023-04-08T12:43:11.364Z,6.90
2023-04-08T12:53:16.420Z,6.60
2023-04-08T13:03:20.252Z,6.50
2023-04-08T13:13:25.553Z,6.40
2023-04-08T13:23:29.168Z,6.50
2023-04-08T13:33:34.180Z,6.80
2023-04-08T13:43:37.974Z,7.00
2023-04-08T13:53:43.035Z,7.20
2023-04-08T14:03:46.885Z,7.60
2023-04-08T14:13:52.216Z,7.80
2023-04-08T14:23:56.129Z,8.20
2023-04-08T14:34:01.742Z,8.50
2023-04-08T14:44:06.774Z,8.30
2023-04-08T14:54:14.201Z,8.40
2023-04-08T15:04:17.852Z,7.80
2023-04-08T15:14:23.783Z,7.90
2023-04-08T15:24:27.387Z,8.10
2023-04-08T15:34:32.481Z,7.70
2023-04-08T15:44:36.639Z,7.70
2023-04-08T15:54:41.616Z,7.70
2023-04-08T16:04:45.325Z,7.70
2023-04-08T16:14:51.146Z,7.50
2023-04-08T16:24:54.714Z,7.30
2023-04-08T16:35:00.393Z,6.90
2023-04-08T16:45:04.010Z,6.50
2023-04-08T16:55:11.991Z,6.00
2023-04-08T17:05:17.211Z,5.70
2023-04-08T17:15:22.383Z,5.40
2023-04-08T17:25:26.083Z,5.10
2023-04-08T17:35:31.058Z,4.90
2023-04-08T17:45:34.879Z,4.70
2023-04-08T17:55:40.179Z,4.50
2023-04-08T18:05:44.139Z,4.30
2023-04-08T18:15:49.466Z,4.20
2023-04-08T18:25:53.219Z,4.00
2023-04-08T18:35:59.628Z,4.00
2023-04-08T18:46:04.738Z,3.90
2023-04-08T18:56:16.468Z,3.80
2023-04-08T19:06:22.580Z,3.80
2023-04-08T19:16:28.168Z,3.60
2023-04-08T19:26:32.018Z,3.50
2023-04-08T19:36:37.227Z,3.40
2023-04-08T19:46:41.254Z,3.40
2023-04-08T19:56:47.498Z,3.40
2023-04-08T20:06:51.192Z,3.50
2023-04-08T20:16:57.055Z,3.40
2023-04-08T20:27:01.514Z,3.40
2023-04-08T20:37:07.040Z,3.30
2023-04-08T20:47:10.772Z,3.10
2023-04-08T20:57:15.886Z,2.80
2023-04-08T21:07:19.644Z,2.70
2023-04-08T21:17:25.038Z,2.70
2023-04-08T21:27:30.407Z,2.60
2023-04-08T21:37:35.824Z,2.40
2023-04-08T21:47:39.745Z,2.40
2023-04-08T21:57:44.914Z,2.40
2023-04-08T22:07:48.621Z,2.40
2023-04-08T22:17:54.177Z,2.30
2023-04-08T22:27:57.905Z,2.20
2023-04-08T22:38:03.256Z,2.10
2023-04-08T22:48:07.887Z,2.10
2023-04-08T22:58:13.108Z,2.10
2023-04-08T23:08:16.820Z,2.20
2023-04-08T23:18:21.932Z,2.30
2023-04-08T23:28:25.827Z,2.20
2023-04-08T23:38:31.050Z,2.10
2023-04-08T23:48:34.721Z,2.10
2023-04-08T23:58:40.026Z,2.00
